createdAt,value
2018-05-12T00:01:12.521Z,8.80
2018-05-12T00:03:40.158Z,7.70
2018-05-12T00:06:07.752Z,11.33
2018-05-12T00:08:35.338Z,6.93
2018-05-12T00:11:02.963Z,6.87
2018-05-12T00:13:30.548Z,8.20
2018-05-12T00:15:58.165Z,7.60
2018-05-12T00:18:25.795Z,8.63
2018-05-12T00:20:53.396Z,7.47
2018-05-12T00:23:20.985Z,7.40
2018-05-12T00:25:48.671Z,7.73
2018-05-12T00:28:16.277Z,7.90
2018-05-12T00:30:43.861Z,7.20
2018-05-12T00:33:11.492Z,8.70
2018-05-12T00:35:39.088Z,7.47
2018-05-12T00:38:06.685Z,6.87
2018-05-12T00:40:34.308Z,7.83
2018-05-12T00:43:02.011Z,7.03
2018-05-12T00:45:29.535Z,7.57
2018-05-12T00:47:57.152Z,8.30
2018-05-12T00:50:24.749Z,7.47
2018-05-12T00:52:52.326Z,8.23
2018-05-12T00:55:20.005Z,8.10
2018-05-12T00:57:47.589Z,9.10
2018-05-12T01:00:15.171Z,8.60
2018-05-12T01:02:42.796Z,8.40
2018-05-12T01:05:10.393Z,7.97
2018-05-12T01:07:37.978Z,8.60
2018-05-12T01:10:05.607Z,8.53
2018-05-12T01:12:33.189Z,8.27
2018-05-12T01:15:00.784Z,9.83
2018-05-12T01:17:28.435Z,9.07
2018-05-12T01:19:56.020Z,8.50
2018-05-12T01:22:23.625Z,9.50
2018-05-12T01:24:51.258Z,8.03
2018-05-12T01:27:18.865Z,8.60
2018-05-12T01:29:46.443Z,8.50
2018-05-12T01:32:14.109Z,7.90
2018-05-12T01:34:41.701Z,9.07
2018-05-12T01:37:09.291Z,9.13
2018-05-12T01:39:36.902Z,9.60
2018-05-12T01:42:04.489Z,7.17
2018-05-12T01:44:32.078Z,9.17
2018-05-12T01:46:59.735Z,9.47
2018-05-12T01:49:27.322Z,9.90
2018-05-12T01:51:54.912Z,10.13
2018-05-12T01:54:22.571Z,10.83
2018-05-12T01:56:50.168Z,11.60
2018-05-12T01:59:17.761Z,10.20
2018-05-12T02:01:45.387Z,11.10
2018-05-12T02:04:12.999Z,11.53
2018-05-12T02:06:40.592Z,11.23
2018-05-12T02:09:08.292Z,11.70
2018-05-12T02:11:35.857Z,11.73
2018-05-12T02:14:03.484Z,12.67
2018-05-12T02:16:31.123Z,11.60
2018-05-12T02:18:58.712Z,11.77
2018-05-12T02:21:26.314Z,10.23
2018-05-12T02:23:53.956Z,11.20
2018-05-12T02:26:21.545Z,10.60
2018-05-12T02:28:49.135Z,10.40
2018-05-12T02:31:16.810Z,13.70
2018-05-12T02:33:44.407Z,10.80
2018-05-12T02:36:12.046Z,10.80
2018-05-12T02:38:39.727Z,10.47
2018-05-12T02:41:07.312Z,9.90
2018-05-12T02:43:34.888Z,7.80
2018-05-12T02:46:02.495Z,8.30
2018-05-12T02:48:30.084Z,6.80
2018-05-12T02:50:57.667Z,8.50
2018-05-12T02:53:25.301Z,7.73
2018-05-12T02:55:52.892Z,9.10
2018-05-12T02:58:20.473Z,9.97
2018-05-12T03:00:48.100Z,10.43
2018-05-12T03:03:15.685Z,10.03
2018-05-12T03:05:43.276Z,12.40
2018-05-12T03:08:10.908Z,9.77
2018-05-12T03:10:38.510Z,10.70
2018-05-12T03:13:06.109Z,10.60
2018-05-12T03:15:33.743Z,11.63
2018-05-12T03:18:01.334Z,11.57
2018-05-12T03:20:28.976Z,12.03
2018-05-12T03:22:56.599Z,10.50
2018-05-12T03:25:24.194Z,10.10
2018-05-12T03:27:51.801Z,10.30
2018-05-12T03:30:19.427Z,9.13
2018-05-12T03:32:47.032Z,12.20
2018-05-12T03:35:14.626Z,10.03
2018-05-12T03:37:42.255Z,12.53
2018-05-12T03:40:09.843Z,9.67
2018-05-12T03:42:37.428Z,9.80
2018-05-12T03:45:05.084Z,10.60
2018-05-12T03:47:32.661Z,9.80
2018-05-12T03:50:00.256Z,10.30
2018-05-12T03:52:27.891Z,10.20
2018-05-12T03:54:55.571Z,11.63
2018-05-12T03:57:23.165Z,11.50
2018-05-12T03:59:50.825Z,11.03
2018-05-12T04:02:18.419Z,9.00
2018-05-12T04:04:57.868Z,10.80
2018-05-12T04:07:37.148Z,12.23
2018-05-12T04:10:16.468Z,9.37
2018-05-12T04:12:44.051Z,8.10
2018-05-12T04:15:11.623Z,8.37
2018-05-12T04:17:39.233Z,8.77
2018-05-12T04:20:06.817Z,8.50
2018-05-12T04:22:34.475Z,7.20
2018-05-12T04:25:02.098Z,7.57
2018-05-12T04:27:29.685Z,6.80
2018-05-12T04:29:57.254Z,6.03
2018-05-12T04:32:24.865Z,4.77
2018-05-12T04:34:52.456Z,5.63
2018-05-12T04:37:20.036Z,6.00
2018-05-12T04:39:47.649Z,6.37
2018-05-12T04:42:15.228Z,4.73
2018-05-12T04:44:42.794Z,5.10
2018-05-12T04:47:10.407Z,7.67
2018-05-12T04:49:37.996Z,11.37
2018-05-12T04:52:05.592Z,6.17
2018-05-12T04:54:33.222Z,7.57
2018-05-12T04:57:00.807Z,6.87
2018-05-12T04:59:28.389Z,6.20
2018-05-12T05:01:56.005Z,7.03
2018-05-12T05:04:23.603Z,6.90
2018-05-12T05:06:51.182Z,5.70
2018-05-12T05:09:18.783Z,5.93
2018-05-12T05:11:46.353Z,5.40
2018-05-12T05:14:13.927Z,6.03
2018-05-12T05:16:41.541Z,6.80
2018-05-12T05:19:09.124Z,5.57
2018-05-12T05:21:36.708Z,6.10
2018-05-12T05:24:04.330Z,7.60
2018-05-12T05:26:31.932Z,11.50
2018-05-12T05:28:59.549Z,8.07
2018-05-12T05:31:27.168Z,5.83
2018-05-12T05:33:54.755Z,6.57
2018-05-12T05:36:22.315Z,6.43
2018-05-12T05:38:49.936Z,7.13
2018-05-12T05:41:17.507Z,5.67
2018-05-12T05:43:45.086Z,4.80
2018-05-12T05:46:12.708Z,5.10
2018-05-12T05:48:40.298Z,4.40
2018-05-12T05:51:07.913Z,6.30
2018-05-12T05:53:35.493Z,5.57
2018-05-12T05:56:03.070Z,6.33
2018-05-12T05:58:30.638Z,4.60
2018-05-12T06:00:58.280Z,3.77
2018-05-12T06:03:25.860Z,5.17
2018-05-12T06:05:53.422Z,3.83
2018-05-12T06:08:21.042Z,4.73
2018-05-12T06:10:48.600Z,3.43
2018-05-12T06:13:16.171Z,3.93
2018-05-12T06:15:43.783Z,3.67
2018-05-12T06:18:11.403Z,3.73
2018-05-12T06:20:38.950Z,4.10
2018-05-12T06:23:06.594Z,4.23
2018-05-12T06:25:34.168Z,4.10
2018-05-12T06:28:01.749Z,4.30
2018-05-12T06:30:29.357Z,3.73
2018-05-12T06:32:56.972Z,3.33
2018-05-12T06:35:24.580Z,22.83
2018-05-12T06:37:52.186Z,3.60
2018-05-12T06:40:19.766Z,4.80
2018-05-12T06:42:47.342Z,4.10
2018-05-12T06:45:14.947Z,3.80
2018-05-12T06:47:42.515Z,3.63
2018-05-12T06:50:10.133Z,3.83
2018-05-12T06:52:37.743Z,4.20
2018-05-12T06:55:05.312Z,2.83
2018-05-12T06:57:32.905Z,3.70
2018-05-12T07:00:00.527Z,3.10
2018-05-12T07:02:28.094Z,3.00
2018-05-12T07:04:55.681Z,3.40
2018-05-12T07:07:23.338Z,2.73
2018-05-12T07:09:50.907Z,3.00
2018-05-12T07:12:18.530Z,3.50
2018-05-12T07:14:46.134Z,2.60
2018-05-12T07:17:13.712Z,4.17
2018-05-12T07:19:41.304Z,3.63
2018-05-12T07:22:08.920Z,3.57
2018-05-12T07:24:36.497Z,3.57
2018-05-12T07:27:04.048Z,2.70
2018-05-12T07:29:31.713Z,2.40
2018-05-12T07:31:59.302Z,3.17
2018-05-12T07:34:26.884Z,3.97
2018-05-12T07:36:54.489Z,3.60
2018-05-12T07:39:22.065Z,3.30
2018-05-12T07:41:49.637Z,4.80
2018-05-12T07:44:17.239Z,3.67
2018-05-12T07:46:44.811Z,4.20
2018-05-12T07:49:12.386Z,3.13
2018-05-12T07:51:40.258Z,3.17
2018-05-12T07:54:07.788Z,2.83
2018-05-12T07:56:35.381Z,2.40
2018-05-12T07:59:02.999Z,3.37
2018-05-12T08:01:30.571Z,3.60
2018-05-12T08:03:58.160Z,2.57
2018-05-12T08:06:25.763Z,2.20
2018-05-12T08:08:53.342Z,2.37
2018-05-12T08:11:20.932Z,1.83
2018-05-12T08:13:48.548Z,4.10
2018-05-12T08:16:16.175Z,2.87
2018-05-12T08:18:43.763Z,4.13
2018-05-12T08:21:11.382Z,3.53
2018-05-12T08:23:38.956Z,2.20
2018-05-12T08:26:06.602Z,2.57
2018-05-12T08:28:34.218Z,2.70
2018-05-12T08:31:01.807Z,3.50
2018-05-12T08:33:29.374Z,2.37
2018-05-12T08:35:57.066Z,2.30
2018-05-12T08:38:24.638Z,2.80
2018-05-12T08:40:52.218Z,4.57
2018-05-12T08:43:20.740Z,2.30
2018-05-12T08:45:48.309Z,3.30
2018-05-12T08:48:15.962Z,2.53
2018-05-12T08:50:43.531Z,2.47
2018-05-12T08:53:11.095Z,2.20
2018-05-12T08:55:38.681Z,2.33
2018-05-12T08:58:06.283Z,2.27
2018-05-12T09:00:33.855Z,3.03
2018-05-12T09:03:01.432Z,3.20
2018-05-12T09:05:29.049Z,2.23
2018-05-12T09:07:56.673Z,1.90
2018-05-12T09:10:24.252Z,2.70
2018-05-12T09:12:52.006Z,2.53
2018-05-12T09:15:19.645Z,2.20
2018-05-12T09:17:47.215Z,2.30
2018-05-12T09:20:14.834Z,2.53
2018-05-12T09:22:42.429Z,2.37
2018-05-12T09:25:10.018Z,3.00
2018-05-12T09:27:37.634Z,3.40
2018-05-12T09:30:05.212Z,4.80
2018-05-12T09:32:32.799Z,2.43
2018-05-12T09:35:00.432Z,3.20
2018-05-12T09:37:28.011Z,2.83
2018-05-12T09:39:55.589Z,2.63
2018-05-12T09:42:23.254Z,4.67
2018-05-12T09:44:50.854Z,1.83
2018-05-12T09:47:18.401Z,2.83
2018-05-12T09:49:46.027Z,2.20
2018-05-12T09:52:13.622Z,2.47
2018-05-12T09:54:41.199Z,2.70
2018-05-12T09:57:08.833Z,2.73
2018-05-12T09:59:36.662Z,2.50
2018-05-12T10:02:04.214Z,2.20
2018-05-12T10:04:31.828Z,3.60
2018-05-12T10:06:59.403Z,2.57
2018-05-12T10:09:26.985Z,2.93
2018-05-12T10:11:54.582Z,2.10
2018-05-12T10:14:22.152Z,2.40
2018-05-12T10:16:49.807Z,3.00
2018-05-12T10:19:17.469Z,3.13
2018-05-12T10:21:45.058Z,3.40
2018-05-12T10:24:12.687Z,3.43
2018-05-12T10:26:40.289Z,3.07
2018-05-12T10:29:07.865Z,2.90
2018-05-12T10:31:35.443Z,2.80
2018-05-12T10:34:03.070Z,3.43
2018-05-12T10:36:30.652Z,3.60
2018-05-12T10:38:58.286Z,2.40
2018-05-12T10:41:26.019Z,2.10
2018-05-12T10:43:53.630Z,4.00
2018-05-12T10:46:21.217Z,2.27
2018-05-12T10:48:48.905Z,3.40
2018-05-12T10:51:16.482Z,3.10
2018-05-12T10:53:44.077Z,2.90
2018-05-12T10:56:11.763Z,3.60
2018-05-12T10:58:39.437Z,4.20
2018-05-12T11:01:07.315Z,2.40
2018-05-12T11:03:34.929Z,2.90
2018-05-12T11:06:02.496Z,2.13
2018-05-12T11:08:30.178Z,2.80
2018-05-12T11:10:57.804Z,2.90
2018-05-12T11:13:25.409Z,2.37
2018-05-12T11:15:53.088Z,2.43
2018-05-12T11:18:20.754Z,2.80
2018-05-12T11:20:48.356Z,1.73
2018-05-12T11:23:16.060Z,2.40
2018-05-12T11:25:43.731Z,2.70
2018-05-12T11:28:11.294Z,2.10
2018-05-12T11:30:38.868Z,2.60
2018-05-12T11:33:10.051Z,4.17
2018-05-12T11:35:40.775Z,2.10
2018-05-12T11:38:12.487Z,3.00
2018-05-12T11:40:40.341Z,2.37
2018-05-12T11:43:07.926Z,2.30
2018-05-12T11:45:35.553Z,1.73
2018-05-12T11:48:03.140Z,1.90
2018-05-12T11:50:30.779Z,2.43
2018-05-12T11:52:58.552Z,3.10
2018-05-12T11:55:26.111Z,3.70
2018-05-12T11:57:53.685Z,2.93
2018-05-12T12:00:21.304Z,3.53
2018-05-12T12:02:48.884Z,2.73
2018-05-12T12:05:16.450Z,3.50
2018-05-12T12:07:44.051Z,3.17
2018-05-12T12:10:11.792Z,2.60
2018-05-12T12:12:39.358Z,2.53
2018-05-12T12:15:07.105Z,2.97
2018-05-12T12:17:34.775Z,2.87
2018-05-12T12:20:02.445Z,1.93
2018-05-12T12:22:30.067Z,2.47
2018-05-12T12:24:57.631Z,2.57
2018-05-12T12:27:25.206Z,2.50
2018-05-12T12:29:52.892Z,2.73
2018-05-12T12:32:20.549Z,2.20
2018-05-12T12:34:48.190Z,2.47
2018-05-12T12:37:15.802Z,2.17
2018-05-12T12:39:43.533Z,2.60
2018-05-12T12:42:11.181Z,2.13
2018-05-12T12:44:38.800Z,2.43
2018-05-12T12:47:06.372Z,2.07
2018-05-12T12:49:33.975Z,2.90
2018-05-12T12:52:01.586Z,2.57
2018-05-12T12:54:29.289Z,3.30
2018-05-12T12:56:56.878Z,3.20
2018-05-12T12:59:24.588Z,3.17
2018-05-12T13:01:52.276Z,2.77
2018-05-12T13:04:19.932Z,3.10
2018-05-12T13:06:47.601Z,3.17
2018-05-12T13:09:15.188Z,2.83
2018-05-12T13:11:42.939Z,3.17
2018-05-12T13:14:10.556Z,3.60
2018-05-12T13:16:38.148Z,3.27
2018-05-12T13:19:05.919Z,3.13
2018-05-12T13:21:33.734Z,4.83
2018-05-12T13:24:01.453Z,3.73
2018-05-12T13:26:29.099Z,2.90
2018-05-12T13:28:56.731Z,3.27
2018-05-12T13:31:24.321Z,3.20
2018-05-12T13:33:52.094Z,3.40
2018-05-12T13:36:19.754Z,2.63
2018-05-12T13:38:47.637Z,3.17
2018-05-12T13:41:15.475Z,3.30
2018-05-12T13:43:43.151Z,4.43
2018-05-12T13:46:10.748Z,3.87
2018-05-12T13:48:38.325Z,4.30
2018-05-12T13:51:05.937Z,2.47
2018-05-12T13:53:33.584Z,3.10
2018-05-12T13:56:01.413Z,4.00
2018-05-12T13:58:28.954Z,4.77
2018-05-12T14:00:56.534Z,2.93
2018-05-12T14:03:24.153Z,3.90
2018-05-12T14:05:52.005Z,3.20
2018-05-12T14:08:19.885Z,4.73
2018-05-12T14:10:47.464Z,4.47
2018-05-12T14:13:15.205Z,4.67
2018-05-12T14:15:42.781Z,3.67
2018-05-12T14:18:10.520Z,4.77
2018-05-12T14:20:38.404Z,3.77
2018-05-12T14:23:06.009Z,4.83
2018-05-12T14:25:33.726Z,4.10
2018-05-12T14:28:01.376Z,4.63
2018-05-12T14:30:29.043Z,4.70
2018-05-12T14:32:56.712Z,3.80
2018-05-12T14:35:24.343Z,4.50
2018-05-12T14:37:51.925Z,3.40
2018-05-12T14:40:19.513Z,3.10
2018-05-12T14:42:47.213Z,6.13
2018-05-12T14:45:14.788Z,3.60
2018-05-12T14:47:42.366Z,3.93
2018-05-12T14:50:10.130Z,4.20
2018-05-12T14:52:37.703Z,3.67
2018-05-12T14:55:05.646Z,4.87
2018-05-12T14:57:33.328Z,4.07
2018-05-12T15:00:00.990Z,4.07
2018-05-12T15:02:28.724Z,5.00
2018-05-12T15:04:56.521Z,4.10
2018-05-12T15:07:24.185Z,3.23
2018-05-12T15:09:51.800Z,5.13
2018-05-12T15:12:19.464Z,6.10
2018-05-12T15:14:47.054Z,3.47
2018-05-12T15:17:14.656Z,4.00
2018-05-12T15:19:42.259Z,4.23
2018-05-12T15:22:09.942Z,5.13
2018-05-12T15:24:37.620Z,4.13
2018-05-12T15:27:05.267Z,3.17
2018-05-12T15:29:32.945Z,3.20
2018-05-12T15:32:00.592Z,3.47
2018-05-12T15:34:28.197Z,2.80
2018-05-12T15:36:55.767Z,3.20
2018-05-12T15:39:23.349Z,3.60
2018-05-12T15:41:51.037Z,5.17
2018-05-12T15:44:18.716Z,3.60
2018-05-12T15:46:46.378Z,3.40
2018-05-12T15:49:14.228Z,3.73
2018-05-12T15:51:41.894Z,3.93
2018-05-12T15:54:09.479Z,3.20
2018-05-12T15:56:37.229Z,4.43
2018-05-12T15:59:04.836Z,3.27
2018-05-12T16:01:32.761Z,2.83
2018-05-12T16:04:00.392Z,3.97
2018-05-12T16:06:28.084Z,3.73
2018-05-12T16:08:55.658Z,3.70
2018-05-12T16:11:23.271Z,3.33
2018-05-12T16:13:50.842Z,4.30
2018-05-12T16:16:18.532Z,4.43
2018-05-12T16:18:46.143Z,5.40
2018-05-12T16:21:13.852Z,4.10
2018-05-12T16:23:41.419Z,3.77
2018-05-12T16:26:09.041Z,5.10
2018-05-12T16:28:36.819Z,4.53
2018-05-12T16:31:04.399Z,5.20
2018-05-12T16:33:32.155Z,4.00
2018-05-12T16:35:59.771Z,6.00
2018-05-12T16:38:27.490Z,3.97
2018-05-12T16:40:55.109Z,3.90
2018-05-12T16:43:22.678Z,3.63
2018-05-12T16:45:50.256Z,4.93
2018-05-12T16:48:17.895Z,4.23
2018-05-12T16:50:45.539Z,4.97
2018-05-12T16:53:13.243Z,3.23
2018-05-12T16:55:41.113Z,4.20
2018-05-12T16:58:08.777Z,3.30
2018-05-12T17:00:36.401Z,4.50
2018-05-12T17:03:04.016Z,3.40
2018-05-12T17:05:31.761Z,4.40
2018-05-12T17:07:59.641Z,3.57
2018-05-12T17:10:27.297Z,4.10
2018-05-12T17:12:54.951Z,4.00
2018-05-12T17:15:22.624Z,4.23
2018-05-12T17:17:50.276Z,5.50
2018-05-12T17:20:17.871Z,4.00
2018-05-12T17:22:45.453Z,4.03
2018-05-12T17:25:13.088Z,3.03
2018-05-12T17:27:40.734Z,3.57
2018-05-12T17:30:08.386Z,3.20
2018-05-12T17:32:36.001Z,3.10
2018-05-12T17:35:03.593Z,3.97
2018-05-12T17:37:31.164Z,3.63
2018-05-12T17:39:58.828Z,4.63
2018-05-12T17:42:26.506Z,4.37
2018-05-12T17:44:54.152Z,3.77
2018-05-12T17:47:21.936Z,5.30
2018-05-12T17:49:49.686Z,4.37
2018-05-12T17:52:17.260Z,4.00
2018-05-12T17:54:44.867Z,3.80
2018-05-12T17:57:12.468Z,3.87
2018-05-12T17:59:40.038Z,4.17
2018-05-12T18:02:07.799Z,4.80
2018-05-12T18:04:35.468Z,5.60
2018-05-12T18:07:03.044Z,4.80
2018-05-12T18:09:30.685Z,6.40
2018-05-12T18:11:58.433Z,4.77
2018-05-12T18:14:26.102Z,4.73
2018-05-12T18:16:53.752Z,5.87
2018-05-12T18:19:21.334Z,6.43
2018-05-12T18:21:48.901Z,5.17
2018-05-12T18:24:16.572Z,4.00
2018-05-12T18:26:44.155Z,6.63
2018-05-12T18:29:11.714Z,5.20
2018-05-12T18:31:39.317Z,4.50
2018-05-12T18:34:06.987Z,4.37
2018-05-12T18:36:34.850Z,4.03
2018-05-12T18:39:02.524Z,5.53
2018-05-12T18:41:30.108Z,6.50
2018-05-12T18:43:57.669Z,4.87
2018-05-12T18:46:25.307Z,5.30
2018-05-12T18:48:52.951Z,5.87
2018-05-12T18:51:20.512Z,6.60
2018-05-12T18:53:48.103Z,6.30
2018-05-12T18:56:15.740Z,6.60
2018-05-12T18:58:43.404Z,5.63
2018-05-12T19:01:11.076Z,5.10
2018-05-12T19:03:38.724Z,5.70
2018-05-12T19:06:06.304Z,6.30
2018-05-12T19:08:33.911Z,5.07
2018-05-12T19:11:01.493Z,5.30
2018-05-12T19:13:29.084Z,4.90
2018-05-12T19:15:56.692Z,5.30
2018-05-12T19:18:24.306Z,6.10
2018-05-12T19:20:51.866Z,5.43
2018-05-12T19:23:19.612Z,5.40
2018-05-12T19:25:47.186Z,6.37
2018-05-12T19:28:14.943Z,6.87
2018-05-12T19:30:42.539Z,6.30
2018-05-12T19:33:10.107Z,7.00
2018-05-12T19:35:37.944Z,7.20
2018-05-12T19:38:05.787Z,6.47
2018-05-12T19:40:33.459Z,6.40
2018-05-12T19:43:01.112Z,5.37
2018-05-12T19:45:28.704Z,4.43
2018-05-12T19:47:56.261Z,4.57
2018-05-12T19:50:23.841Z,3.93
2018-05-12T19:52:51.435Z,4.30
2018-05-12T19:55:19.022Z,5.40
2018-05-12T19:57:46.598Z,5.63
2018-05-12T20:00:14.259Z,6.70
2018-05-12T20:02:41.839Z,5.00
2018-05-12T20:05:09.520Z,5.13
2018-05-12T20:07:37.124Z,4.00
2018-05-12T20:10:04.701Z,8.70
2018-05-12T20:12:32.278Z,4.50
2018-05-12T20:14:59.992Z,5.13
2018-05-12T20:17:27.604Z,5.10
2018-05-12T20:19:55.363Z,4.03
2018-05-12T20:22:23.145Z,4.90
2018-05-12T20:24:50.762Z,4.03
2018-05-12T20:27:18.379Z,4.07
2018-05-12T20:29:46.417Z,4.57
2018-05-12T20:32:14.250Z,5.10
2018-05-12T20:34:42.857Z,5.20
2018-05-12T20:37:10.756Z,5.70
2018-05-12T20:39:38.383Z,4.87
2018-05-12T20:42:05.975Z,4.80
2018-05-12T20:44:33.574Z,6.07
2018-05-12T20:47:01.202Z,4.43
2018-05-12T20:49:28.778Z,5.80
2018-05-12T20:51:56.381Z,4.63
2018-05-12T20:54:23.972Z,6.43
2018-05-12T20:56:51.557Z,5.43
2018-05-12T20:59:19.149Z,4.80
2018-05-12T21:01:46.825Z,5.20
2018-05-12T21:04:14.408Z,6.17
2018-05-12T21:06:42.037Z,5.73
2018-05-12T21:09:09.636Z,4.60
2018-05-12T21:11:37.225Z,6.13
2018-05-12T21:14:04.859Z,6.13
2018-05-12T21:16:32.458Z,6.30
2018-05-12T21:19:00.169Z,6.20
2018-05-12T21:21:27.774Z,6.03
2018-05-12T21:23:55.441Z,6.50
2018-05-12T21:26:23.036Z,6.00
2018-05-12T21:28:50.716Z,6.50
2018-05-12T21:31:18.274Z,6.17
2018-05-12T21:33:45.848Z,5.60
2018-05-12T21:36:13.499Z,4.20
2018-05-12T21:38:41.056Z,5.50
2018-05-12T21:41:08.650Z,4.80
2018-05-12T21:43:36.264Z,4.70
2018-05-12T21:46:03.857Z,4.53
2018-05-12T21:48:31.469Z,4.50
2018-05-12T21:50:59.084Z,4.27
2018-05-12T21:53:26.653Z,5.40
2018-05-12T21:55:54.260Z,4.67
2018-05-12T21:58:22.152Z,5.10
2018-05-12T22:00:49.748Z,3.53
2018-05-12T22:03:17.351Z,4.83
2018-05-12T22:05:44.962Z,4.93
2018-05-12T22:08:12.627Z,4.20
2018-05-12T22:10:40.197Z,4.20
2018-05-12T22:13:07.900Z,4.83
2018-05-12T22:15:35.494Z,4.00
2018-05-12T22:18:03.139Z,6.27
2018-05-12T22:20:30.860Z,4.60
2018-05-12T22:22:59.184Z,4.47
2018-05-12T22:25:26.850Z,5.00
2018-05-12T22:27:54.500Z,4.50
2018-05-12T22:30:22.135Z,5.20
2018-05-12T22:32:49.708Z,4.80
2018-05-12T22:35:17.320Z,4.20
2018-05-12T22:37:44.894Z,4.83
2018-05-12T22:40:12.519Z,4.33
2018-05-12T22:42:40.275Z,5.97
2018-05-12T22:45:07.919Z,3.47
2018-05-12T22:47:35.501Z,4.60
2018-05-12T22:50:03.108Z,4.77
2018-05-12T22:52:30.856Z,3.43
2018-05-12T22:54:58.443Z,4.27
2018-05-12T22:57:26.231Z,5.10
2018-05-12T22:59:53.836Z,5.83
2018-05-12T23:02:21.403Z,6.17
2018-05-12T23:04:49.032Z,5.00
2018-05-12T23:07:16.645Z,5.60
2018-05-12T23:09:44.255Z,5.10
2018-05-12T23:12:11.890Z,5.47
2018-05-12T23:14:39.482Z,4.40
2018-05-12T23:17:07.052Z,5.20
2018-05-12T23:19:34.684Z,6.00
2018-05-12T23:22:02.276Z,5.00
2018-05-12T23:24:29.850Z,5.77
2018-05-12T23:26:57.460Z,4.10
2018-05-12T23:29:25.027Z,4.83
2018-05-12T23:31:52.604Z,4.30
2018-05-12T23:34:20.236Z,4.40
2018-05-12T23:36:47.846Z,5.00
2018-05-12T23:39:15.438Z,5.80
2018-05-12T23:41:43.057Z,4.50
2018-05-12T23:44:10.633Z,6.20
2018-05-12T23:46:38.218Z,5.33
2018-05-12T23:49:05.823Z,4.97
2018-05-12T23:51:33.488Z,5.10
2018-05-12T23:54:01.059Z,5.43
2018-05-12T23:56:28.661Z,5.33
2018-05-12T23:58:56.320Z,5.00
